sensor_id;sensor_type;location;lat;lon;timestamp;P1;durP1;ratioP1;P2;durP2;ratioP2
29906;SDS011;16776;50.958;10.994;2023-05-10T00:01:12;1.63;;;1.52;;
29906;SDS011;16776;50.958;10.994;2023-05-10T00:03:39;1.88;;;1.77;;
29906;SDS011;16776;50.958;10.994;2023-05-10T00:06:06;1.40;;;1.27;;
29906;SDS011;16776;50.958;10.994;2023-05-10T00:08:32;2.00;;;1.58;;
29906;SDS011;16776;50.958;10.994;2023-05-10T00:11:00;2.38;;;1.80;;
29906;SDS011;16776;50.958;10.994;2023-05-10T00:13:27;4.63;;;2.20;;
29906;SDS011;16776;50.958;10.994;2023-05-10T00:15:55;2.08;;;1.92;;
29906;SDS011;16776;50.958;10.994;2023-05-10T00:18:23;1.90;;;1.63;;
29906;SDS011;16776;50.958;10.994;2023-05-10T00:20:50;1.80;;;1.70;;
29906;SDS011;16776;50.958;10.994;2023-05-10T00:23:17;1.95;;;1.55;;
29906;SDS011;16776;50.958;10.994;2023-05-10T00:25:43;2.08;;;1.67;;
29906;SDS011;16776;50.958;10.994;2023-05-10T00:28:11;1.50;;;1.38;;
29906;SDS011;16776;50.958;10.994;2023-05-10T00:30:39;1.48;;;1.40;;
29906;SDS011;16776;50.958;10.994;2023-05-10T00:33:06;1.55;;;1.27;;
29906;SDS011;16776;50.958;10.994;2023-05-10T00:35:33;1.95;;;1.85;;
29906;SDS011;16776;50.958;10.994;2023-05-10T00:37:59;1.70;;;1.40;;
29906;SDS011;16776;50.958;10.994;2023-05-10T00:40:26;2.05;;;1.67;;
29906;SDS011;16776;50.958;10.994;2023-05-10T00:42:53;1.38;;;1.25;;
29906;SDS011;16776;50.958;10.994;2023-05-10T00:45:22;4.60;;;1.58;;
29906;SDS011;16776;50.958;10.994;2023-05-10T00:47:49;2.10;;;1.30;;
29906;SDS011;16776;50.958;10.994;2023-05-10T00:50:17;2.20;;;1.17;;
29906;SDS011;16776;50.958;10.994;2023-05-10T00:52:44;2.90;;;1.48;;
29906;SDS011;16776;50.958;10.994;2023-05-10T00:55:10;1.60;;;1.42;;
29906;SDS011;16776;50.958;10.994;2023-05-10T00:57:38;1.30;;;1.10;;
29906;SDS011;16776;50.958;10.994;2023-05-10T01:00:05;1.55;;;1.45;;
29906;SDS011;16776;50.958;10.994;2023-05-10T01:02:34;2.17;;;1.52;;
29906;SDS011;16776;50.958;10.994;2023-05-10T01:05:01;1.80;;;1.20;;
29906;SDS011;16776;50.958;10.994;2023-05-10T01:07:30;1.70;;;1.60;;
29906;SDS011;16776;50.958;10.994;2023-05-10T01:09:56;1.30;;;1.17;;
29906;SDS011;16776;50.958;10.994;2023-05-10T01:12:23;1.35;;;1.25;;
29906;SDS011;16776;50.958;10.994;2023-05-10T01:14:50;1.92;;;1.30;;
29906;SDS011;16776;50.958;10.994;2023-05-10T01:17:17;2.17;;;1.50;;
29906;SDS011;16776;50.958;10.994;2023-05-10T01:19:46;2.42;;;1.73;;
29906;SDS011;16776;50.958;10.994;2023-05-10T01:22:18;1.63;;;1.50;;
29906;SDS011;16776;50.958;10.994;2023-05-10T01:25:11;1.40;;;1.30;;
29906;SDS011;16776;50.958;10.994;2023-05-10T01:28:14;2.20;;;1.10;;
29906;SDS011;16776;50.958;10.994;2023-05-10T01:31:03;1.60;;;1.50;;
29906;SDS011;16776;50.958;10.994;2023-05-10T01:33:43;1.88;;;1.77;;
29906;SDS011;16776;50.958;10.994;2023-05-10T01:36:16;1.38;;;1.20;;
29906;SDS011;16776;50.958;10.994;2023-05-10T01:38:51;1.60;;;1.48;;
29906;SDS011;16776;50.958;10.994;2023-05-10T01:41:24;1.25;;;1.05;;
29906;SDS011;16776;50.958;10.994;2023-05-10T01:44:02;1.55;;;1.30;;
29906;SDS011;16776;50.958;10.994;2023-05-10T01:46:36;1.48;;;1.38;;
29906;SDS011;16776;50.958;10.994;2023-05-10T01:49:07;1.20;;;1.02;;
29906;SDS011;16776;50.958;10.994;2023-05-10T01:51:36;1.75;;;1.50;;
29906;SDS011;16776;50.958;10.994;2023-05-10T01:54:07;1.50;;;1.27;;
29906;SDS011;16776;50.958;10.994;2023-05-10T01:56:35;2.63;;;1.83;;
29906;SDS011;16776;50.958;10.994;2023-05-10T01:59:08;2.88;;;1.90;;
29906;SDS011;16776;50.958;10.994;2023-05-10T02:04:07;1.58;;;1.30;;
29906;SDS011;16776;50.958;10.994;2023-05-10T02:06:35;1.30;;;1.20;;
29906;SDS011;16776;50.958;10.994;2023-05-10T02:09:05;1.10;;;1.10;;
29906;SDS011;16776;50.958;10.994;2023-05-10T02:11:37;1.30;;;1.10;;
29906;SDS011;16776;50.958;10.994;2023-05-10T02:14:05;1.00;;;0.80;;
29906;SDS011;16776;50.958;10.994;2023-05-10T02:16:33;1.13;;;1.00;;
29906;SDS011;16776;50.958;10.994;2023-05-10T02:19:02;1.35;;;1.25;;
29906;SDS011;16776;50.958;10.994;2023-05-10T02:21:30;1.70;;;1.00;;
29906;SDS011;16776;50.958;10.994;2023-05-10T02:23:57;1.15;;;1.10;;
29906;SDS011;16776;50.958;10.994;2023-05-10T02:26:27;1.42;;;1.30;;
29906;SDS011;16776;50.958;10.994;2023-05-10T02:28:55;2.30;;;1.20;;
29906;SDS011;16776;50.958;10.994;2023-05-10T02:31:23;1.45;;;1.33;;
29906;SDS011;16776;50.958;10.994;2023-05-10T02:33:51;1.35;;;1.13;;
29906;SDS011;16776;50.958;10.994;2023-05-10T02:36:17;2.13;;;1.00;;
29906;SDS011;16776;50.958;10.994;2023-05-10T02:38:47;1.30;;;1.20;;
29906;SDS011;16776;50.958;10.994;2023-05-10T02:41:15;0.88;;;0.88;;
29906;SDS011;16776;50.958;10.994;2023-05-10T02:43:42;1.15;;;1.05;;
29906;SDS011;16776;50.958;10.994;2023-05-10T02:46:10;1.00;;;1.00;;
29906;SDS011;16776;50.958;10.994;2023-05-10T02:48:36;1.75;;;1.65;;
29906;SDS011;16776;50.958;10.994;2023-05-10T02:51:04;0.95;;;0.90;;
29906;SDS011;16776;50.958;10.994;2023-05-10T02:53:33;0.80;;;0.80;;
29906;SDS011;16776;50.958;10.994;2023-05-10T02:56:04;2.50;;;1.45;;
29906;SDS011;16776;50.958;10.994;2023-05-10T02:58:36;0.82;;;0.82;;
29906;SDS011;16776;50.958;10.994;2023-05-10T03:01:03;1.20;;;1.10;;
29906;SDS011;16776;50.958;10.994;2023-05-10T03:03:30;0.90;;;0.90;;
29906;SDS011;16776;50.958;10.994;2023-05-10T03:05:57;1.30;;;1.15;;
29906;SDS011;16776;50.958;10.994;2023-05-10T03:08:23;0.90;;;0.90;;
29906;SDS011;16776;50.958;10.994;2023-05-10T03:10:54;1.70;;;1.60;;
29906;SDS011;16776;50.958;10.994;2023-05-10T03:13:34;1.15;;;0.93;;
29906;SDS011;16776;50.958;10.994;2023-05-10T03:16:12;1.40;;;1.10;;
29906;SDS011;16776;50.958;10.994;2023-05-10T03:18:42;1.25;;;0.95;;
29906;SDS011;16776;50.958;10.994;2023-05-10T03:21:14;1.02;;;1.02;;
29906;SDS011;16776;50.958;10.994;2023-05-10T03:23:48;2.45;;;1.00;;
29906;SDS011;16776;50.958;10.994;2023-05-10T03:26:18;0.90;;;0.90;;
29906;SDS011;16776;50.958;10.994;2023-05-10T03:28:50;1.25;;;1.15;;
29906;SDS011;16776;50.958;10.994;2023-05-10T03:31:18;0.90;;;0.90;;
29906;SDS011;16776;50.958;10.994;2023-05-10T03:33:45;2.65;;;1.00;;
29906;SDS011;16776;50.958;10.994;2023-05-10T03:36:13;1.30;;;1.10;;
29906;SDS011;16776;50.958;10.994;2023-05-10T03:38:39;1.38;;;1.20;;
29906;SDS011;16776;50.958;10.994;2023-05-10T03:41:06;1.25;;;1.13;;
29906;SDS011;16776;50.958;10.994;2023-05-10T03:43:33;1.70;;;1.20;;
29906;SDS011;16776;50.958;10.994;2023-05-10T03:46:02;1.08;;;1.08;;
29906;SDS011;16776;50.958;10.994;2023-05-10T03:48:29;1.73;;;1.10;;
29906;SDS011;16776;50.958;10.994;2023-05-10T03:50:55;1.13;;;1.00;;
29906;SDS011;16776;50.958;10.994;2023-05-10T03:53:22;1.13;;;1.05;;
29906;SDS011;16776;50.958;10.994;2023-05-10T03:55:49;1.42;;;1.10;;
29906;SDS011;16776;50.958;10.994;2023-05-10T03:58:15;1.13;;;1.02;;
29906;SDS011;16776;50.958;10.994;2023-05-10T04:00:43;1.88;;;1.30;;
29906;SDS011;16776;50.958;10.994;2023-05-10T04:03:12;1.63;;;1.25;;
29906;SDS011;16776;50.958;10.994;2023-05-10T04:05:39;1.27;;;1.10;;
29906;SDS011;16776;50.958;10.994;2023-05-10T04:08:06;1.10;;;1.00;;
29906;SDS011;16776;50.958;10.994;2023-05-10T04:10:33;1.50;;;1.40;;
29906;SDS011;16776;50.958;10.994;2023-05-10T04:12:59;1.67;;;1.33;;
29906;SDS011;16776;50.958;10.994;2023-05-10T04:15:26;2.58;;;1.15;;
29906;SDS011;16776;50.958;10.994;2023-05-10T04:17:53;1.33;;;1.23;;
29906;SDS011;16776;50.958;10.994;2023-05-10T04:20:21;1.30;;;1.20;;
29906;SDS011;16776;50.958;10.994;2023-05-10T04:22:48;1.42;;;1.15;;
29906;SDS011;16776;50.958;10.994;2023-05-10T04:25:14;1.20;;;1.10;;
29906;SDS011;16776;50.958;10.994;2023-05-10T04:27:41;0.93;;;0.93;;
29906;SDS011;16776;50.958;10.994;2023-05-10T04:30:08;0.98;;;0.85;;
29906;SDS011;16776;50.958;10.994;2023-05-10T04:32:35;1.90;;;1.27;;
29906;SDS011;16776;50.958;10.994;2023-05-10T04:35:02;1.27;;;1.17;;
29906;SDS011;16776;50.958;10.994;2023-05-10T04:37:31;1.30;;;1.20;;
29906;SDS011;16776;50.958;10.994;2023-05-10T04:39:57;1.90;;;1.20;;
29906;SDS011;16776;50.958;10.994;2023-05-10T04:42:24;1.20;;;1.15;;
29906;SDS011;16776;50.958;10.994;2023-05-10T04:44:53;1.17;;;1.17;;
29906;SDS011;16776;50.958;10.994;2023-05-10T04:47:20;1.77;;;1.05;;
29906;SDS011;16776;50.958;10.994;2023-05-10T04:49:46;1.20;;;1.10;;
29906;SDS011;16776;50.958;10.994;2023-05-10T04:52:13;1.35;;;1.25;;
29906;SDS011;16776;50.958;10.994;2023-05-10T04:54:42;3.20;;;1.27;;
29906;SDS011;16776;50.958;10.994;2023-05-10T04:57:09;1.10;;;1.00;;
29906;SDS011;16776;50.958;10.994;2023-05-10T04:59:35;1.33;;;1.23;;
29906;SDS011;16776;50.958;10.994;2023-05-10T05:02:02;0.85;;;0.85;;
29906;SDS011;16776;50.958;10.994;2023-05-10T05:04:31;1.65;;;1.13;;
29906;SDS011;16776;50.958;10.994;2023-05-10T05:06:58;1.13;;;1.08;;
29906;SDS011;16776;50.958;10.994;2023-05-10T05:09:25;1.80;;;1.45;;
29906;SDS011;16776;50.958;10.994;2023-05-10T05:11:52;2.58;;;1.20;;
29906;SDS011;16776;50.958;10.994;2023-05-10T05:14:19;1.25;;;1.15;;
29906;SDS011;16776;50.958;10.994;2023-05-10T05:16:46;1.48;;;1.38;;
29906;SDS011;16776;50.958;10.994;2023-05-10T05:19:12;1.73;;;1.50;;
29906;SDS011;16776;50.958;10.994;2023-05-10T05:21:39;1.42;;;1.33;;
29906;SDS011;16776;50.958;10.994;2023-05-10T05:24:06;2.25;;;1.23;;
29906;SDS011;16776;50.958;10.994;2023-05-10T05:26:32;1.33;;;1.23;;
29906;SDS011;16776;50.958;10.994;2023-05-10T05:29:00;1.90;;;1.65;;
29906;SDS011;16776;50.958;10.994;2023-05-10T05:31:27;2.38;;;1.67;;
29906;SDS011;16776;50.958;10.994;2023-05-10T05:33:54;1.70;;;1.45;;
29906;SDS011;16776;50.958;10.994;2023-05-10T05:36:21;1.48;;;1.38;;
29906;SDS011;16776;50.958;10.994;2023-05-10T05:38:47;1.67;;;1.15;;
29906;SDS011;16776;50.958;10.994;2023-05-10T05:41:14;1.67;;;1.40;;
29906;SDS011;16776;50.958;10.994;2023-05-10T05:43:40;1.50;;;1.40;;
29906;SDS011;16776;50.958;10.994;2023-05-10T05:46:08;3.13;;;1.30;;
29906;SDS011;16776;50.958;10.994;2023-05-10T05:48:35;1.50;;;1.40;;
29906;SDS011;16776;50.958;10.994;2023-05-10T05:51:01;0.98;;;0.98;;
29906;SDS011;16776;50.958;10.994;2023-05-10T05:53:28;1.40;;;1.30;;
29906;SDS011;16776;50.958;10.994;2023-05-10T05:55:55;2.10;;;0.90;;
29906;SDS011;16776;50.958;10.994;2023-05-10T05:58:23;2.33;;;1.17;;
29906;SDS011;16776;50.958;10.994;2023-05-10T06:00:50;1.10;;;0.98;;
29906;SDS011;16776;50.958;10.994;2023-05-10T06:03:19;1.63;;;1.23;;
29906;SDS011;16776;50.958;10.994;2023-05-10T06:05:46;1.95;;;1.20;;
29906;SDS011;16776;50.958;10.994;2023-05-10T06:08:13;1.30;;;1.20;;
29906;SDS011;16776;50.958;10.994;2023-05-10T06:10:39;2.35;;;1.25;;
29906;SDS011;16776;50.958;10.994;2023-05-10T06:13:06;1.25;;;1.13;;
29906;SDS011;16776;50.958;10.994;2023-05-10T06:15:32;1.73;;;1.30;;
29906;SDS011;16776;50.958;10.994;2023-05-10T06:17:59;1.80;;;1.30;;
29906;SDS011;16776;50.958;10.994;2023-05-10T06:20:27;2.15;;;1.13;;
29906;SDS011;16776;50.958;10.994;2023-05-10T06:22:54;1.27;;;1.08;;
29906;SDS011;16776;50.958;10.994;2023-05-10T06:25:20;1.42;;;1.00;;
29906;SDS011;16776;50.958;10.994;2023-05-10T06:27:47;1.25;;;1.15;;
29906;SDS011;16776;50.958;10.994;2023-05-10T06:30:13;2.30;;;1.52;;
29906;SDS011;16776;50.958;10.994;2023-05-10T06:32:40;1.50;;;1.40;;
29906;SDS011;16776;50.958;10.994;2023-05-10T06:35:08;2.08;;;1.05;;
29906;SDS011;16776;50.958;10.994;2023-05-10T06:37:37;1.13;;;1.00;;
29906;SDS011;16776;50.958;10.994;2023-05-10T06:40:03;1.05;;;0.90;;
29906;SDS011;16776;50.958;10.994;2023-05-10T06:42:31;2.00;;;0.80;;
29906;SDS011;16776;50.958;10.994;2023-05-10T06:44:58;0.95;;;0.80;;
29906;SDS011;16776;50.958;10.994;2023-05-10T06:47:24;0.70;;;0.70;;
29906;SDS011;16776;50.958;10.994;2023-05-10T06:49:51;0.90;;;0.90;;
29906;SDS011;16776;50.958;10.994;2023-05-10T06:52:17;1.10;;;0.70;;
29906;SDS011;16776;50.958;10.994;2023-05-10T06:54:45;0.65;;;0.63;;
29906;SDS011;16776;50.958;10.994;2023-05-10T06:57:12;0.50;;;0.40;;
29906;SDS011;16776;50.958;10.994;2023-05-10T06:59:38;0.25;;;0.20;;
29906;SDS011;16776;50.958;10.994;2023-05-10T07:02:05;0.30;;;0.30;;
29906;SDS011;16776;50.958;10.994;2023-05-10T07:04:32;0.30;;;0.20;;
29906;SDS011;16776;50.958;10.994;2023-05-10T07:06:58;0.20;;;0.20;;
29906;SDS011;16776;50.958;10.994;2023-05-10T07:09:25;0.30;;;0.30;;
29906;SDS011;16776;50.958;10.994;2023-05-10T07:11:54;0.60;;;0.40;;
29906;SDS011;16776;50.958;10.994;2023-05-10T07:14:22;0.30;;;0.30;;
29906;SDS011;16776;50.958;10.994;2023-05-10T07:16:48;0.28;;;0.28;;
29906;SDS011;16776;50.958;10.994;2023-05-10T07:19:15;0.20;;;0.20;;
29906;SDS011;16776;50.958;10.994;2023-05-10T07:21:42;0.30;;;0.30;;
29906;SDS011;16776;50.958;10.994;2023-05-10T07:24:08;0.20;;;0.20;;
29906;SDS011;16776;50.958;10.994;2023-05-10T07:26:35;0.22;;;0.22;;
29906;SDS011;16776;50.958;10.994;2023-05-10T07:29:03;0.15;;;0.15;;
29906;SDS011;16776;50.958;10.994;2023-05-10T07:31:29;0.28;;;0.28;;
29906;SDS011;16776;50.958;10.994;2023-05-10T07:33:56;0.10;;;0.10;;
29906;SDS011;16776;50.958;10.994;2023-05-10T07:36:22;0.63;;;0.30;;
29906;SDS011;16776;50.958;10.994;2023-05-10T07:38:49;0.20;;;0.20;;
29906;SDS011;16776;50.958;10.994;2023-05-10T07:41:16;0.20;;;0.20;;
29906;SDS011;16776;50.958;10.994;2023-05-10T07:43:42;0.17;;;0.17;;
29906;SDS011;16776;50.958;10.994;2023-05-10T07:46:10;0.10;;;0.10;;
29906;SDS011;16776;50.958;10.994;2023-05-10T07:48:37;0.10;;;0.10;;
29906;SDS011;16776;50.958;10.994;2023-05-10T07:51:03;0.10;;;0.10;;
29906;SDS011;16776;50.958;10.994;2023-05-10T07:53:31;1.65;;;0.10;;
29906;SDS011;16776;50.958;10.994;2023-05-10T07:55:58;0.20;;;0.20;;
29906;SDS011;16776;50.958;10.994;2023-05-10T07:58:25;0.30;;;0.20;;
29906;SDS011;16776;50.958;10.994;2023-05-10T08:00:54;0.10;;;0.10;;
29906;SDS011;16776;50.958;10.994;2023-05-10T08:03:22;0.10;;;0.10;;
29906;SDS011;16776;50.958;10.994;2023-05-10T08:05:49;0.10;;;0.10;;
29906;SDS011;16776;50.958;10.994;2023-05-10T08:08:15;0.00;;;0.00;;
29906;SDS011;16776;50.958;10.994;2023-05-10T08:10:42;0.20;;;0.10;;
29906;SDS011;16776;50.958;10.994;2023-05-10T08:13:09;0.13;;;0.13;;
29906;SDS011;16776;50.958;10.994;2023-05-10T08:15:36;0.00;;;0.00;;
29906;SDS011;16776;50.958;10.994;2023-05-10T08:18:02;0.00;;;0.00;;
29906;SDS011;16776;50.958;10.994;2023-05-10T08:20:31;0.00;;;0.00;;
29906;SDS011;16776;50.958;10.994;2023-05-10T08:22:57;0.00;;;0.00;;
29906;SDS011;16776;50.958;10.994;2023-05-10T08:25:24;0.00;;;0.00;;
29906;SDS011;16776;50.958;10.994;2023-05-10T08:27:51;0.00;;;0.00;;
29906;SDS011;16776;50.958;10.994;2023-05-10T08:30:17;0.00;;;0.00;;
29906;SDS011;16776;50.958;10.994;2023-05-10T08:32:44;0.00;;;0.00;;
29906;SDS011;16776;50.958;10.994;2023-05-10T08:35:10;0.10;;;0.10;;
29906;SDS011;16776;50.958;10.994;2023-05-10T08:37:38;0.60;;;0.05;;
29906;SDS011;16776;50.958;10.994;2023-05-10T08:40:05;0.00;;;0.00;;
29906;SDS011;16776;50.958;10.994;2023-05-10T08:42:34;0.43;;;0.03;;
29906;SDS011;16776;50.958;10.994;2023-05-10T08:45:05;0.00;;;0.00;;
29906;SDS011;16776;50.958;10.994;2023-05-10T08:47:33;0.10;;;0.10;;
29906;SDS011;16776;50.958;10.994;2023-05-10T08:50:03;0.10;;;0.10;;
29906;SDS011;16776;50.958;10.994;2023-05-10T08:52:30;0.00;;;0.00;;
29906;SDS011;16776;50.958;10.994;2023-05-10T08:55:00;0.00;;;0.00;;
29906;SDS011;16776;50.958;10.994;2023-05-10T08:57:27;0.65;;;0.10;;
29906;SDS011;16776;50.958;10.994;2023-05-10T08:59:55;0.00;;;0.00;;
29906;SDS011;16776;50.958;10.994;2023-05-10T09:02:22;0.10;;;0.10;;
29906;SDS011;16776;50.958;10.994;2023-05-10T09:04:49;0.00;;;0.00;;
29906;SDS011;16776;50.958;10.994;2023-05-10T09:07:16;0.05;;;0.05;;
29906;SDS011;16776;50.958;10.994;2023-05-10T09:09:43;0.00;;;0.00;;
29906;SDS011;16776;50.958;10.994;2023-05-10T09:12:13;0.50;;;0.10;;
29906;SDS011;16776;50.958;10.994;2023-05-10T09:14:40;0.00;;;0.00;;
29906;SDS011;16776;50.958;10.994;2023-05-10T09:17:08;1.08;;;0.00;;
29906;SDS011;16776;50.958;10.994;2023-05-10T09:19:35;0.00;;;0.00;;
29906;SDS011;16776;50.958;10.994;2023-05-10T09:22:02;0.10;;;0.10;;
29906;SDS011;16776;50.958;10.994;2023-05-10T09:24:29;0.00;;;0.00;;
29906;SDS011;16776;50.958;10.994;2023-05-10T09:26:56;0.00;;;0.00;;
29906;SDS011;16776;50.958;10.994;2023-05-10T09:29:25;0.00;;;0.00;;
29906;SDS011;16776;50.958;10.994;2023-05-10T09:31:51;0.10;;;0.10;;
29906;SDS011;16776;50.958;10.994;2023-05-10T09:34:20;0.00;;;0.00;;
29906;SDS011;16776;50.958;10.994;2023-05-10T09:36:54;0.00;;;0.00;;
29906;SDS011;16776;50.958;10.994;2023-05-10T09:39:29;0.00;;;0.00;;
29906;SDS011;16776;50.958;10.994;2023-05-10T09:41:56;0.10;;;0.08;;
29906;SDS011;16776;50.958;10.994;2023-05-10T09:44:26;0.08;;;0.03;;
29906;SDS011;16776;50.958;10.994;2023-05-10T09:46:52;0.00;;;0.00;;
29906;SDS011;16776;50.958;10.994;2023-05-10T09:49:20;0.00;;;0.00;;
29906;SDS011;16776;50.958;10.994;2023-05-10T09:51:46;0.00;;;0.00;;
29906;SDS011;16776;50.958;10.994;2023-05-10T09:54:25;0.10;;;0.10;;
29906;SDS011;16776;50.958;10.994;2023-05-10T09:56:52;0.03;;;0.03;;
29906;SDS011;16776;50.958;10.994;2023-05-10T09:59:18;0.00;;;0.00;;
29906;SDS011;16776;50.958;10.994;2023-05-10T10:01:50;0.00;;;0.00;;
29906;SDS011;16776;50.958;10.994;2023-05-10T10:04:17;0.10;;;0.00;;
29906;SDS011;16776;50.958;10.994;2023-05-10T10:06:46;0.00;;;0.00;;
29906;SDS011;16776;50.958;10.994;2023-05-10T10:09:24;0.00;;;0.00;;
29906;SDS011;16776;50.958;10.994;2023-05-10T10:11:51;0.85;;;0.08;;
29906;SDS011;16776;50.958;10.994;2023-05-10T10:14:18;0.10;;;0.10;;
29906;SDS011;16776;50.958;10.994;2023-05-10T10:16:44;0.00;;;0.00;;
29906;SDS011;16776;50.958;10.994;2023-05-10T10:19:13;0.10;;;0.10;;
29906;SDS011;16776;50.958;10.994;2023-05-10T10:21:40;0.00;;;0.00;;
29906;SDS011;16776;50.958;10.994;2023-05-10T10:24:07;0.47;;;0.10;;
29906;SDS011;16776;50.958;10.994;2023-05-10T10:26:33;0.20;;;0.10;;
29906;SDS011;16776;50.958;10.994;2023-05-10T10:29:05;0.08;;;0.08;;
29906;SDS011;16776;50.958;10.994;2023-05-10T10:31:45;0.10;;;0.10;;
29906;SDS011;16776;50.958;10.994;2023-05-10T10:36:50;0.00;;;0.00;;
29906;SDS011;16776;50.958;10.994;2023-05-10T10:39:17;0.00;;;0.00;;
29906;SDS011;16776;50.958;10.994;2023-05-10T10:41:49;0.20;;;0.10;;
29906;SDS011;16776;50.958;10.994;2023-05-10T10:44:27;0.10;;;0.10;;
29906;SDS011;16776;50.958;10.994;2023-05-10T10:47:01;0.20;;;0.10;;
29906;SDS011;16776;50.958;10.994;2023-05-10T10:49:32;0.00;;;0.00;;
29906;SDS011;16776;50.958;10.994;2023-05-10T10:52:15;0.10;;;0.10;;
29906;SDS011;16776;50.958;10.994;2023-05-10T10:54:51;0.13;;;0.13;;
29906;SDS011;16776;50.958;10.994;2023-05-10T10:57:18;0.28;;;0.28;;
29906;SDS011;16776;50.958;10.994;2023-05-10T10:59:46;0.20;;;0.20;;
29906;SDS011;16776;50.958;10.994;2023-05-10T11:10:33;0.10;;;0.10;;
29906;SDS011;16776;50.958;10.994;2023-05-10T11:13:00;0.00;;;0.00;;
29906;SDS011;16776;50.958;10.994;2023-05-10T11:15:31;0.10;;;0.10;;
29906;SDS011;16776;50.958;10.994;2023-05-10T11:17:58;0.05;;;0.05;;
29906;SDS011;16776;50.958;10.994;2023-05-10T11:20:26;0.10;;;0.10;;
29906;SDS011;16776;50.958;10.994;2023-05-10T11:23:10;0.00;;;0.00;;
29906;SDS011;16776;50.958;10.994;2023-05-10T11:25:41;0.10;;;0.10;;
29906;SDS011;16776;50.958;10.994;2023-05-10T11:28:09;0.00;;;0.00;;
29906;SDS011;16776;50.958;10.994;2023-05-10T11:30:35;0.10;;;0.10;;
29906;SDS011;16776;50.958;10.994;2023-05-10T11:33:02;0.10;;;0.10;;
29906;SDS011;16776;50.958;10.994;2023-05-10T11:35:29;0.70;;;0.10;;
29906;SDS011;16776;50.958;10.994;2023-05-10T11:37:55;0.00;;;0.00;;
29906;SDS011;16776;50.958;10.994;2023-05-10T11:40:23;0.00;;;0.00;;
29906;SDS011;16776;50.958;10.994;2023-05-10T11:42:51;0.00;;;0.00;;
29906;SDS011;16776;50.958;10.994;2023-05-10T11:45:17;0.10;;;0.10;;
29906;SDS011;16776;50.958;10.994;2023-05-10T11:47:44;0.20;;;0.20;;
29906;SDS011;16776;50.958;10.994;2023-05-10T11:50:14;0.65;;;0.10;;
29906;SDS011;16776;50.958;10.994;2023-05-10T11:52:41;0.10;;;0.10;;
29906;SDS011;16776;50.958;10.994;2023-05-10T11:55:07;0.47;;;0.00;;
29906;SDS011;16776;50.958;10.994;2023-05-10T11:57:35;0.00;;;0.00;;
29906;SDS011;16776;50.958;10.994;2023-05-10T12:00:03;0.10;;;0.10;;
29906;SDS011;16776;50.958;10.994;2023-05-10T12:02:31;0.10;;;0.10;;
29906;SDS011;16776;50.958;10.994;2023-05-10T12:04:57;0.00;;;0.00;;
29906;SDS011;16776;50.958;10.994;2023-05-10T12:07:25;0.43;;;0.10;;
29906;SDS011;16776;50.958;10.994;2023-05-10T12:10:05;0.15;;;0.15;;
29906;SDS011;16776;50.958;10.994;2023-05-10T12:12:38;0.00;;;0.00;;
29906;SDS011;16776;50.958;10.994;2023-05-10T12:15:07;0.00;;;0.00;;
29906;SDS011;16776;50.958;10.994;2023-05-10T12:17:37;0.00;;;0.00;;
29906;SDS011;16776;50.958;10.994;2023-05-10T12:20:14;0.10;;;0.10;;
29906;SDS011;16776;50.958;10.994;2023-05-10T12:22:49;0.10;;;0.10;;
29906;SDS011;16776;50.958;10.994;2023-05-10T12:25:17;0.10;;;0.10;;
29906;SDS011;16776;50.958;10.994;2023-05-10T12:27:49;0.00;;;0.00;;
29906;SDS011;16776;50.958;10.994;2023-05-10T12:30:20;0.10;;;0.10;;
29906;SDS011;16776;50.958;10.994;2023-05-10T12:32:48;0.35;;;0.25;;
29906;SDS011;16776;50.958;10.994;2023-05-10T12:35:14;0.08;;;0.08;;
29906;SDS011;16776;50.958;10.994;2023-05-10T12:37:41;0.90;;;0.10;;
29906;SDS011;16776;50.958;10.994;2023-05-10T12:40:09;0.10;;;0.10;;
29906;SDS011;16776;50.958;10.994;2023-05-10T12:42:41;0.28;;;0.00;;
29906;SDS011;16776;50.958;10.994;2023-05-10T12:45:11;0.00;;;0.00;;
29906;SDS011;16776;50.958;10.994;2023-05-10T12:47:38;0.05;;;0.05;;
29906;SDS011;16776;50.958;10.994;2023-05-10T12:50:05;0.10;;;0.10;;
29906;SDS011;16776;50.958;10.994;2023-05-10T12:52:32;0.00;;;0.00;;
29906;SDS011;16776;50.958;10.994;2023-05-10T12:54:59;0.10;;;0.10;;
29906;SDS011;16776;50.958;10.994;2023-05-10T12:57:26;0.10;;;0.10;;
29906;SDS011;16776;50.958;10.994;2023-05-10T12:59:53;0.00;;;0.00;;
29906;SDS011;16776;50.958;10.994;2023-05-10T13:02:21;0.00;;;0.00;;
29906;SDS011;16776;50.958;10.994;2023-05-10T13:04:48;0.00;;;0.00;;
29906;SDS011;16776;50.958;10.994;2023-05-10T13:07:15;0.10;;;0.10;;
29906;SDS011;16776;50.958;10.994;2023-05-10T13:09:41;0.00;;;0.00;;
29906;SDS011;16776;50.958;10.994;2023-05-10T13:12:08;0.00;;;0.00;;
29906;SDS011;16776;50.958;10.994;2023-05-10T13:14:35;0.03;;;0.00;;
29906;SDS011;16776;50.958;10.994;2023-05-10T13:17:01;0.10;;;0.10;;
29906;SDS011;16776;50.958;10.994;2023-05-10T13:19:29;0.52;;;0.00;;
29906;SDS011;16776;50.958;10.994;2023-05-10T13:21:56;0.00;;;0.00;;
29906;SDS011;16776;50.958;10.994;2023-05-10T13:24:23;0.00;;;0.00;;
29906;SDS011;16776;50.958;10.994;2023-05-10T13:26:49;0.08;;;0.08;;
29906;SDS011;16776;50.958;10.994;2023-05-10T13:29:16;0.00;;;0.00;;
29906;SDS011;16776;50.958;10.994;2023-05-10T13:31:43;0.10;;;0.10;;
29906;SDS011;16776;50.958;10.994;2023-05-10T13:34:10;0.10;;;0.10;;
29906;SDS011;16776;50.958;10.994;2023-05-10T13:36:37;0.10;;;0.10;;
29906;SDS011;16776;50.958;10.994;2023-05-10T13:39:04;0.13;;;0.10;;
29906;SDS011;16776;50.958;10.994;2023-05-10T13:41:31;0.00;;;0.00;;
29906;SDS011;16776;50.958;10.994;2023-05-10T13:43:58;0.00;;;0.00;;
29906;SDS011;16776;50.958;10.994;2023-05-10T13:46:24;0.10;;;0.10;;
29906;SDS011;16776;50.958;10.994;2023-05-10T13:48:51;0.00;;;0.00;;
29906;SDS011;16776;50.958;10.994;2023-05-10T13:51:17;0.10;;;0.10;;
29906;SDS011;16776;50.958;10.994;2023-05-10T13:53:45;0.10;;;0.10;;
29906;SDS011;16776;50.958;10.994;2023-05-10T13:56:13;0.10;;;0.00;;
29906;SDS011;16776;50.958;10.994;2023-05-10T13:58:39;0.65;;;0.10;;
29906;SDS011;16776;50.958;10.994;2023-05-10T14:01:06;0.10;;;0.10;;
29906;SDS011;16776;50.958;10.994;2023-05-10T14:03:32;0.90;;;0.10;;
29906;SDS011;16776;50.958;10.994;2023-05-10T14:05:59;0.10;;;0.10;;
29906;SDS011;16776;50.958;10.994;2023-05-10T14:08:26;0.00;;;0.00;;
29906;SDS011;16776;50.958;10.994;2023-05-10T14:10:54;0.22;;;0.10;;
29906;SDS011;16776;50.958;10.994;2023-05-10T14:13:22;0.10;;;0.10;;
29906;SDS011;16776;50.958;10.994;2023-05-10T14:15:49;0.20;;;0.10;;
29906;SDS011;16776;50.958;10.994;2023-05-10T14:18:16;0.00;;;0.00;;
29906;SDS011;16776;50.958;10.994;2023-05-10T14:23:10;0.20;;;0.10;;
29906;SDS011;16776;50.958;10.994;2023-05-10T14:25:37;0.10;;;0.10;;
29906;SDS011;16776;50.958;10.994;2023-05-10T14:28:05;0.45;;;0.20;;
29906;SDS011;16776;50.958;10.994;2023-05-10T14:30:32;0.15;;;0.15;;
29906;SDS011;16776;50.958;10.994;2023-05-10T14:32:59;0.10;;;0.10;;
29906;SDS011;16776;50.958;10.994;2023-05-10T14:35:26;0.10;;;0.10;;
29906;SDS011;16776;50.958;10.994;2023-05-10T14:37:53;0.10;;;0.10;;
29906;SDS011;16776;50.958;10.994;2023-05-10T14:40:19;0.10;;;0.10;;
29906;SDS011;16776;50.958;10.994;2023-05-10T14:42:46;0.10;;;0.10;;
29906;SDS011;16776;50.958;10.994;2023-05-10T14:45:14;0.63;;;0.17;;
29906;SDS011;16776;50.958;10.994;2023-05-10T14:47:40;0.10;;;0.10;;
29906;SDS011;16776;50.958;10.994;2023-05-10T14:50:07;0.15;;;0.15;;
29906;SDS011;16776;50.958;10.994;2023-05-10T14:52:34;1.88;;;0.52;;
29906;SDS011;16776;50.958;10.994;2023-05-10T14:55:01;0.40;;;0.10;;